createdAt,value
2023-05-09T00:01:42.311Z,7.03
2023-05-09T00:06:35.487Z,6.80
2023-05-09T00:11:30.876Z,8.48
2023-05-09T00:16:24.422Z,7.30
2023-05-09T00:21:18.889Z,7.40
2023-05-09T00:26:12.376Z,7.35
2023-05-09T00:31:09.358Z,7.78
2023-05-09T00:36:02.498Z,6.85
2023-05-09T00:40:57.093Z,7.53
2023-05-09T00:45:50.913Z,6.85
2023-05-09T00:50:44.357Z,6.97
2023-05-09T00:55:37.701Z,6.95
2023-05-09T01:00:32.546Z,7.30
2023-05-09T01:05:31.768Z,6.93
2023-05-09T01:10:32.929Z,6.80
2023-05-09T01:15:32.456Z,7.20
2023-05-09T01:20:34.911Z,6.60
2023-05-09T01:25:43.600Z,6.43
2023-05-09T01:30:39.345Z,6.72
2023-05-09T01:35:37.064Z,6.10
2023-05-09T01:40:33.618Z,6.80
2023-05-09T01:45:28.222Z,6.35
2023-05-09T01:50:24.237Z,6.22
2023-05-09T01:55:19.987Z,5.97
2023-05-09T02:00:15.356Z,6.57
2023-05-09T02:05:12.914Z,6.43
2023-05-09T02:10:10.269Z,6.80
2023-05-09T02:15:04.061Z,7.07
2023-05-09T02:19:57.388Z,6.90
2023-05-09T02:24:50.940Z,6.70
2023-05-09T02:29:56.366Z,6.40
2023-05-09T02:34:52.266Z,6.57
2023-05-09T02:39:45.652Z,6.90
2023-05-09T02:44:39.951Z,6.80
2023-05-09T02:49:34.724Z,6.72
2023-05-09T02:54:29.901Z,6.72
2023-05-09T02:59:23.210Z,5.68
2023-05-09T03:04:16.688Z,6.80
2023-05-09T03:09:11.413Z,6.40
2023-05-09T03:14:06.407Z,6.13
2023-05-09T03:18:59.678Z,6.15
2023-05-09T03:23:53.090Z,6.53
2023-05-09T03:28:48.963Z,5.70
2023-05-09T03:33:42.509Z,6.07
2023-05-09T03:38:36.435Z,6.13
2023-05-09T03:43:29.985Z,6.32
2023-05-09T03:48:24.614Z,7.10
2023-05-09T03:53:20.629Z,7.18
2023-05-09T03:58:16.100Z,6.65
2023-05-09T04:03:10.867Z,6.70
2023-05-09T04:08:09.720Z,7.25
2023-05-09T04:13:03.263Z,6.72
2023-05-09T04:17:58.020Z,7.32
2023-05-09T04:22:53.290Z,6.93
2023-05-09T04:27:48.685Z,7.03
2023-05-09T04:32:46.052Z,6.72
2023-05-09T04:37:40.161Z,7.57
2023-05-09T04:42:33.889Z,7.07
2023-05-09T04:47:28.934Z,6.13
2023-05-09T04:52:24.795Z,6.90
2023-05-09T04:57:19.171Z,6.25
2023-05-09T05:02:18.334Z,6.15
2023-05-09T05:07:14.124Z,6.07
2023-05-09T05:12:09.758Z,5.00
2023-05-09T05:17:04.678Z,6.07
2023-05-09T05:22:04.451Z,6.10
2023-05-09T05:27:00.224Z,5.45
2023-05-09T05:31:54.215Z,6.40
2023-05-09T13:06:34.570Z,4.60
2023-05-09T13:11:28.083Z,4.20
2023-05-09T13:16:21.363Z,4.20
2023-05-09T13:21:14.481Z,4.22
2023-05-09T13:26:09.126Z,3.65
2023-05-09T13:31:19.416Z,3.67
2023-05-09T13:41:06.168Z,4.45
2023-05-09T13:46:01.147Z,3.90
2023-05-09T13:50:54.572Z,4.07
2023-05-09T13:55:47.732Z,4.22
2023-05-09T14:00:41.742Z,4.50
2023-05-09T14:05:36.200Z,4.03
2023-05-09T14:10:29.204Z,4.78
2023-05-09T14:15:22.438Z,4.70
2023-05-09T14:20:16.289Z,5.18
2023-05-09T14:25:11.551Z,5.35
2023-05-09T14:30:07.745Z,5.40
2023-05-09T14:35:00.963Z,7.10
2023-05-09T14:39:56.702Z,5.45
2023-05-09T14:44:51.237Z,8.00
2023-05-09T14:49:48.645Z,5.53
2023-05-09T14:54:42.330Z,5.20
2023-05-09T14:59:37.076Z,4.88
2023-05-09T15:04:31.930Z,5.53
2023-05-09T15:09:25.091Z,5.22
2023-05-09T15:14:18.317Z,5.22
2023-05-09T15:19:12.610Z,5.25
2023-05-09T15:24:08.138Z,5.25
2023-05-09T15:29:01.345Z,5.55
2023-05-09T15:33:54.528Z,5.25
2023-05-09T15:38:49.724Z,4.78
2023-05-09T15:43:44.673Z,3.50
2023-05-09T15:48:37.839Z,3.35
2023-05-09T15:53:31.023Z,4.00
2023-05-09T15:58:24.107Z,3.80
2023-05-09T16:03:21.091Z,3.50
2023-05-09T16:08:14.503Z,4.03
2023-05-09T16:13:08.825Z,4.15
2023-05-09T16:18:02.103Z,4.50
2023-05-09T16:22:56.803Z,4.70
2023-05-09T16:27:49.973Z,4.43
2023-05-09T16:32:43.699Z,4.13
2023-05-09T16:37:36.956Z,3.92
2023-05-09T16:42:31.547Z,3.80
2023-05-09T16:47:24.713Z,3.90
2023-05-09T16:52:18.140Z,3.22
2023-05-09T16:57:11.317Z,4.18
2023-05-09T17:02:05.968Z,3.92
2023-05-09T17:06:59.372Z,4.13
2023-05-09T17:11:52.496Z,4.35
2023-05-09T17:16:45.668Z,4.07
2023-05-09T17:21:41.801Z,4.70
2023-05-09T17:26:35.167Z,4.72
2023-05-09T17:31:28.433Z,4.93
2023-05-09T17:36:21.909Z,5.07
2023-05-09T17:41:16.577Z,4.72
2023-05-09T17:46:11.198Z,5.28
2023-05-09T17:51:15.621Z,6.53
2023-05-09T17:56:11.425Z,5.80
2023-05-09T18:01:06.004Z,5.53
2023-05-09T18:06:00.468Z,5.50
2023-05-09T18:10:54.774Z,5.95
2023-05-09T18:15:48.180Z,5.70
2023-05-09T18:20:42.819Z,5.82
2023-05-09T18:25:36.239Z,5.78
2023-05-09T18:30:29.439Z,6.20
2023-05-09T18:35:22.770Z,6.32
2023-05-09T18:40:17.822Z,5.68
2023-05-09T18:45:12.053Z,6.47
2023-05-09T18:50:07.235Z,6.15
2023-05-09T18:55:00.650Z,6.28
2023-05-09T18:59:56.069Z,6.22
2023-05-09T19:04:50.594Z,6.88
2023-05-09T19:09:43.789Z,7.47
2023-05-09T19:14:37.920Z,7.40
2023-05-09T19:19:42.225Z,6.88
2023-05-09T19:24:35.428Z,7.13
2023-05-09T19:29:28.673Z,7.38
2023-05-09T19:34:23.035Z,6.40
2023-05-09T19:39:18.065Z,6.28
2023-05-09T19:44:11.282Z,5.97
2023-05-09T19:49:04.944Z,5.75
2023-05-09T19:53:58.174Z,7.35
2023-05-09T19:58:52.706Z,5.95
2023-05-09T20:03:47.941Z,6.45
2023-05-09T20:08:41.310Z,6.90
2023-05-09T20:13:34.470Z,6.50
2023-05-09T20:18:29.080Z,6.78
2023-05-09T20:23:22.463Z,6.85
2023-05-09T20:28:20.143Z,6.32
2023-05-09T20:33:13.901Z,7.20
2023-05-09T20:38:09.476Z,7.10
2023-05-09T20:43:08.784Z,7.10
2023-05-09T20:48:04.053Z,6.65
2023-05-09T20:52:57.127Z,7.30
2023-05-09T20:57:51.756Z,7.28
2023-05-09T21:02:45.034Z,7.53
2023-05-09T21:07:38.257Z,7.03
2023-05-09T21:12:34.527Z,7.35
2023-05-09T21:17:34.009Z,7.32
2023-05-09T21:22:27.144Z,7.17
2023-05-09T21:27:20.408Z,6.78
2023-05-09T21:32:13.470Z,7.80
2023-05-09T21:37:08.047Z,7.53
2023-05-09T21:42:01.270Z,7.75
2023-05-09T21:46:56.131Z,8.23
2023-05-09T21:51:49.315Z,8.77
2023-05-09T21:56:43.844Z,8.02
2023-05-09T22:01:37.160Z,7.85
2023-05-09T22:06:30.358Z,8.10
2023-05-09T22:11:23.488Z,7.22
2023-05-09T22:16:18.749Z,7.85
2023-05-09T22:21:12.712Z,7.82
2023-05-09T22:26:06.209Z,7.57
2023-05-09T22:30:59.501Z,7.93
2023-05-09T22:35:54.067Z,8.50
2023-05-09T22:40:47.304Z,7.57
2023-05-09T22:45:40.590Z,7.80
2023-05-09T22:50:35.145Z,8.38
2023-05-09T22:55:30.075Z,7.68
2023-05-09T23:00:24.581Z,8.30
2023-05-09T23:05:20.326Z,7.75
2023-05-09T23:10:13.747Z,8.18
2023-05-09T23:15:11.592Z,8.48
2023-05-09T23:20:05.482Z,8.82
2023-05-09T23:24:59.773Z,8.80
2023-05-09T23:29:52.913Z,7.88
2023-05-09T23:34:47.594Z,9.05
2023-05-09T23:39:41.944Z,7.97
2023-05-09T23:44:35.449Z,8.35
2023-05-09T23:49:29.087Z,8.57
2023-05-09T23:54:24.533Z,8.23
2023-05-09T23:59:17.727Z,8.23
